Heather Glen, California
Current Conditions -  °F | °C
As of 2:55 PM on Friday 28 Nov 2014 (Local Time) from KAUN Reporting Station
Clear Clear  
Wind Chill: 61°   Ceiling: Unl
Heat Index: 61°   Visibility: 6mi
Dew Point: 45°   Wind: 7mph
Humidity: 55%   Direction: 220°SW
Pressure: 29.92"   Gusts: NA
Location:  38.9833°N, 120.99°W
Report Text: KAUN 282255Z AUTO 22006KT 6SM CLR 16/07 A2992 RMK AO1
Loading
Personal Weather Stations






























Interactive Weather Map New forecast layout! Learn more

10-Day Weather Forecast

Advertisements
Track Severe Weather on mobile